Azwell, Washington
Current Conditions -  °F | °C
As of 8:53 PM on Tuesday 25 Nov 2014 (Local Time) from KOMK Reporting Station
Light Snow Light Snow  
Wind Chill: 32°   Ceiling: 1600
Heat Index: 32°   Visibility: 1.2mi
Dew Point: 31°   Wind: 0mph
Humidity: 96%   Direction: NA
Pressure: 30.24"   Gusts: NA
Location:  48.0966°N, 119.955°W
Report Text: KOMK 260453Z AUTO 00000KT 1 1/4SM -SN BR OVC016 00/M01 A3024 RMK AO2 SLP253 P0007 T00001006
Loading
Personal Weather Stations






























Interactive Weather Map New forecast layout! Learn more

10-Day Weather Forecast

Advertisements
Track Severe Weather on mobile